createdAt,value
2023-03-03T00:00:47.701Z,190.69
2023-03-03T00:01:42.834Z,195.12
2023-03-03T00:02:38.181Z,197.58
2023-03-03T00:03:33.505Z,199.38
2023-03-03T00:04:28.741Z,199.51
2023-03-03T00:05:23.776Z,200.73
2023-03-03T00:06:18.983Z,201.59
2023-03-03T00:07:14.144Z,201.09
2023-03-03T00:08:09.434Z,201.84
2023-03-03T00:09:04.485Z,203.34
2023-03-03T00:09:59.747Z,204.10
2023-03-03T00:10:54.943Z,204.22
2023-03-03T00:11:50.226Z,206.15
2023-03-03T00:12:45.323Z,206.80
2023-03-03T00:13:40.684Z,207.45
2023-03-03T00:14:35.710Z,208.37
2023-03-03T00:15:31.001Z,209.84
2023-03-03T00:16:26.234Z,209.84
2023-03-03T00:17:21.508Z,209.04
2023-03-03T00:18:16.792Z,209.71
2023-03-03T00:19:11.977Z,209.71
2023-03-03T00:20:07.110Z,209.71
2023-03-03T00:21:02.439Z,210.65
2023-03-03T00:21:57.415Z,209.17
2023-03-03T00:22:52.684Z,208.77
2023-03-03T00:23:47.830Z,209.97
2023-03-03T00:24:43.122Z,208.64
2023-03-03T00:25:38.270Z,207.85
2023-03-03T00:26:33.546Z,207.45
2023-03-03T00:27:28.716Z,206.67
2023-03-03T00:28:24.317Z,206.28
2023-03-03T00:29:19.339Z,206.15
2023-03-03T00:30:14.535Z,204.99
2023-03-03T00:31:09.692Z,203.21
2023-03-03T00:32:04.924Z,200.73
2023-03-03T00:33:00.045Z,200.24
2023-03-03T00:33:55.306Z,198.78
2023-03-03T00:34:50.466Z,199.99
2023-03-03T00:35:45.809Z,201.84
2023-03-03T00:36:40.891Z,203.72
2023-03-03T00:37:36.183Z,203.97
2023-03-03T00:38:31.490Z,203.34
2023-03-03T00:39:26.523Z,202.96
2023-03-03T00:40:21.666Z,203.21
2023-03-03T00:41:16.846Z,204.22
2023-03-03T00:42:11.989Z,206.02
2023-03-03T00:43:07.268Z,207.19
2023-03-03T00:44:02.561Z,206.02
2023-03-03T00:44:57.836Z,204.99
2023-03-03T00:45:52.861Z,205.89
2023-03-03T00:46:48.104Z,206.15
2023-03-03T00:47:43.251Z,207.06
2023-03-03T00:48:38.824Z,207.32
2023-03-03T00:49:33.702Z,208.11
2023-03-03T00:50:29.038Z,208.37
2023-03-03T00:51:24.192Z,208.11
2023-03-03T00:52:19.474Z,207.71
2023-03-03T00:54:38.728Z,187.43
2023-03-03T00:55:33.788Z,192.03
2023-03-03T00:56:28.939Z,195.46
2023-03-03T00:57:24.134Z,198.90
2023-03-03T00:58:19.386Z,201.71
2023-03-03T00:59:14.574Z,201.96
2023-03-03T01:00:09.935Z,204.22
2023-03-03T01:01:04.969Z,204.22
2023-03-03T01:02:00.201Z,206.02
2023-03-03T01:02:55.408Z,206.93
2023-03-03T01:03:50.551Z,206.93
2023-03-03T01:04:45.983Z,205.76
2023-03-03T01:05:41.124Z,207.71
2023-03-03T01:06:36.284Z,207.19
2023-03-03T01:07:31.453Z,208.64
2023-03-03T01:08:26.734Z,208.90
2023-03-03T01:09:21.895Z,208.64
2023-03-03T01:10:17.101Z,208.37
2023-03-03T01:11:12.278Z,209.04
2023-03-03T01:12:07.707Z,209.30
2023-03-03T01:13:02.617Z,208.51
2023-03-03T01:13:57.817Z,208.64
2023-03-03T01:14:53.171Z,209.44
2023-03-03T01:15:48.632Z,209.44
2023-03-03T01:16:43.379Z,209.71
2023-03-03T01:17:38.556Z,209.84
2023-03-03T01:18:33.701Z,211.05
2023-03-03T01:19:29.008Z,212.70
2023-03-03T01:20:24.291Z,211.33
2023-03-03T01:21:19.470Z,210.78
2023-03-03T01:22:14.614Z,210.38
2023-03-03T01:23:10.697Z,212.42
2023-03-03T01:24:05.003Z,212.01
2023-03-03T01:25:00.473Z,210.78
2023-03-03T01:25:55.496Z,209.97
2023-03-03T01:26:50.827Z,209.57
2023-03-03T01:27:46.092Z,209.17
2023-03-03T01:28:41.264Z,209.30
2023-03-03T01:29:36.485Z,206.67
2023-03-03T01:30:31.665Z,206.02
2023-03-03T01:31:26.991Z,205.63
2023-03-03T01:32:22.151Z,205.12
2023-03-03T01:33:17.389Z,203.72
2023-03-03T01:34:12.421Z,204.48
2023-03-03T01:35:07.699Z,204.61
2023-03-03T01:36:02.869Z,203.72
2023-03-03T01:36:58.016Z,204.10
2023-03-03T01:37:53.205Z,202.71
2023-03-03T01:38:48.461Z,202.21
2023-03-03T01:39:43.624Z,201.34
2023-03-03T01:40:38.791Z,201.59
2023-03-03T01:41:33.957Z,199.38
2023-03-03T01:42:29.260Z,201.46
2023-03-03T01:43:24.378Z,200.73
2023-03-03T01:44:19.658Z,200.48
2023-03-03T01:45:14.938Z,201.09
2023-03-03T01:46:09.983Z,202.84
2023-03-03T01:47:05.246Z,205.50
2023-03-03T01:48:00.405Z,205.24
2023-03-03T01:48:55.690Z,205.76
2023-03-03T01:49:50.962Z,206.41
2023-03-03T01:50:46.022Z,209.57
2023-03-03T01:51:41.181Z,209.71
2023-03-03T01:52:36.492Z,209.30
2023-03-03T01:53:31.662Z,208.90
2023-03-03T01:54:26.844Z,207.45
2023-03-03T01:55:22.129Z,207.85
2023-03-03T01:56:17.324Z,207.32
2023-03-03T01:57:12.459Z,207.06
2023-03-03T01:58:07.640Z,206.80
2023-03-03T01:59:02.937Z,205.89
2023-03-03T01:59:57.958Z,206.15
2023-03-03T02:00:53.136Z,206.54
2023-03-03T02:01:48.465Z,206.15
2023-03-03T02:02:43.647Z,205.37
2023-03-03T02:03:38.885Z,205.76
2023-03-03T02:04:34.028Z,204.99
2023-03-03T02:05:29.445Z,204.22
2023-03-03T02:06:24.590Z,204.99
2023-03-03T02:07:19.795Z,204.48
2023-03-03T02:08:15.080Z,204.73
2023-03-03T02:09:10.215Z,206.15
2023-03-03T02:10:05.410Z,207.06
2023-03-03T02:11:00.572Z,208.90
2023-03-03T02:11:55.691Z,208.64
2023-03-03T02:12:50.996Z,211.33
2023-03-03T02:13:46.171Z,210.11
2023-03-03T02:14:41.337Z,209.57
2023-03-03T02:15:36.629Z,208.77
2023-03-03T02:16:31.869Z,209.44
2023-03-03T02:17:26.883Z,208.77
2023-03-03T02:18:22.125Z,207.85
2023-03-03T02:19:17.286Z,208.51
2023-03-03T02:20:12.432Z,209.17
2023-03-03T02:21:07.643Z,209.44
2023-03-03T02:22:02.762Z,209.04
2023-03-03T02:22:58.072Z,209.04
2023-03-03T02:23:53.334Z,209.71
2023-03-03T02:24:48.499Z,211.05
2023-03-03T02:25:43.795Z,211.05
2023-03-03T02:26:38.844Z,211.46
2023-03-03T02:27:33.965Z,209.57
2023-03-03T02:28:29.139Z,209.97
2023-03-03T02:29:24.302Z,209.97
2023-03-03T02:30:19.511Z,210.78
2023-03-03T02:31:14.708Z,211.60
2023-03-03T02:32:09.847Z,210.51
2023-03-03T02:33:05.102Z,212.28
2023-03-03T02:34:00.339Z,212.97
2023-03-03T02:34:55.343Z,211.46
2023-03-03T02:35:50.658Z,210.78
2023-03-03T02:38:13.196Z,191.25
2023-03-03T02:39:08.245Z,193.85
2023-03-03T02:40:03.416Z,194.42
2023-03-03T02:40:58.619Z,197.70
2023-03-03T02:41:53.776Z,202.58
2023-03-03T02:42:48.895Z,204.10
2023-03-03T02:43:44.083Z,206.80
2023-03-03T02:44:39.235Z,207.71
2023-03-03T02:45:34.543Z,207.98
2023-03-03T02:46:29.564Z,208.64
2023-03-03T02:47:24.857Z,209.04
2023-03-03T02:48:20.131Z,208.90
2023-03-03T02:49:15.389Z,209.30
2023-03-03T02:50:10.532Z,209.97
2023-03-03T02:51:05.787Z,210.38
2023-03-03T02:52:00.912Z,209.44
2023-03-03T02:52:56.208Z,212.15
2023-03-03T02:53:51.354Z,211.33
2023-03-03T02:54:46.641Z,209.44
2023-03-03T02:55:41.763Z,209.84
2023-03-03T02:56:37.053Z,208.64
2023-03-03T02:57:32.184Z,208.11
2023-03-03T02:58:27.500Z,207.32
2023-03-03T02:59:22.663Z,205.63
2023-03-03T03:00:17.973Z,206.15
2023-03-03T03:01:13.058Z,206.54
2023-03-03T03:02:08.216Z,207.45
2023-03-03T03:03:03.386Z,207.19
2023-03-03T03:03:58.627Z,206.54
2023-03-03T03:04:53.763Z,207.32
2023-03-03T03:05:49.066Z,207.32
2023-03-03T03:06:44.391Z,207.45
2023-03-03T03:07:39.460Z,208.64
2023-03-03T03:08:34.726Z,209.04
2023-03-03T03:09:29.929Z,208.90
2023-03-03T03:10:25.079Z,207.58
2023-03-03T03:11:20.266Z,207.98
2023-03-03T03:12:15.414Z,208.64
2023-03-03T03:13:10.560Z,211.19
2023-03-03T03:14:05.729Z,211.33
2023-03-03T03:15:00.985Z,211.87
2023-03-03T03:15:56.114Z,213.94
2023-03-03T03:16:51.342Z,214.50
2023-03-03T03:17:46.523Z,215.21
2023-03-03T03:18:41.917Z,215.35
2023-03-03T03:19:36.941Z,215.07
2023-03-03T03:20:32.316Z,214.36
2023-03-03T03:21:27.603Z,213.39
2023-03-03T03:22:22.752Z,212.83
2023-03-03T03:23:17.905Z,211.60
2023-03-03T03:24:13.060Z,211.74
2023-03-03T03:25:08.178Z,211.60
2023-03-03T03:26:03.471Z,198.54
2023-03-03T03:28:25.390Z,176.96
2023-03-03T03:29:18.687Z,180.02
2023-03-03T03:30:13.840Z,182.98
2023-03-03T03:31:09.171Z,186.04
2023-03-03T03:32:04.248Z,188.61
2023-03-03T03:32:59.499Z,190.47
2023-03-03T03:33:54.526Z,192.82
2023-03-03T03:34:49.799Z,194.42
2023-03-03T03:35:44.995Z,194.42
2023-03-03T03:36:40.159Z,197.35
2023-03-03T03:37:35.281Z,198.06
2023-03-03T03:38:30.852Z,198.54
2023-03-03T03:39:26.219Z,199.75
2023-03-03T03:40:20.997Z,199.51
2023-03-03T03:41:16.120Z,199.26
2023-03-03T03:42:11.459Z,200.11
2023-03-03T03:43:06.688Z,203.34
2023-03-03T03:44:01.845Z,204.48
2023-03-03T03:44:57.023Z,204.10
2023-03-03T03:45:52.285Z,205.24
2023-03-03T03:46:47.436Z,202.84
2023-03-03T03:47:42.726Z,200.48
2023-03-03T03:48:37.872Z,199.63
2023-03-03T03:49:32.889Z,198.06
2023-03-03T03:50:28.055Z,198.06
2023-03-03T03:51:23.265Z,196.05
2023-03-03T03:52:18.436Z,195.00
2023-03-03T03:53:13.725Z,189.81
2023-03-03T03:54:08.882Z,187.21
2023-03-03T03:55:04.209Z,186.47
2023-03-03T03:55:59.317Z,189.59
2023-03-03T03:56:54.635Z,194.31
2023-03-03T03:57:49.663Z,197.23
2023-03-03T03:58:44.999Z,198.90
2023-03-03T03:59:40.045Z,199.38
2023-03-03T04:00:35.197Z,200.48
2023-03-03T04:01:30.363Z,200.48
2023-03-03T04:02:25.748Z,201.09
2023-03-03T04:03:20.868Z,202.21
2023-03-03T04:04:16.017Z,200.85
2023-03-03T04:05:11.239Z,198.06
2023-03-03T04:06:06.395Z,198.90
2023-03-03T04:07:01.551Z,199.38
2023-03-03T04:07:56.865Z,199.75
2023-03-03T04:08:52.220Z,200.97
2023-03-03T04:09:47.282Z,202.84
2023-03-03T04:10:42.456Z,203.59
2023-03-03T04:11:37.646Z,204.86
2023-03-03T04:12:32.791Z,204.86
2023-03-03T04:13:28.087Z,204.48
2023-03-03T04:14:23.318Z,203.97
2023-03-03T04:15:18.476Z,203.97
2023-03-03T04:16:13.666Z,201.84
2023-03-03T04:17:08.858Z,201.84
2023-03-03T04:18:04.057Z,199.26
2023-03-03T04:18:59.506Z,198.54
2023-03-03T04:19:54.662Z,197.94
2023-03-03T04:20:49.850Z,200.36
2023-03-03T04:21:45.067Z,199.02
2023-03-03T04:22:40.223Z,197.23
2023-03-03T04:23:35.477Z,195.00
2023-03-03T04:24:30.706Z,191.25
2023-03-03T04:25:25.976Z,184.89
2023-03-03T04:26:21.073Z,180.99
2023-03-03T04:27:16.236Z,175.84
2023-03-03T04:28:11.543Z,180.99
2023-03-03T04:29:06.813Z,184.80
2023-03-03T04:30:02.027Z,180.21
2023-03-03T04:32:21.228Z,164.09
2023-03-03T04:33:16.287Z,169.42
2023-03-03T04:34:11.572Z,172.75
2023-03-03T04:35:08.489Z,177.15
2023-03-03T04:36:02.062Z,182.58
2023-03-03T04:36:57.220Z,186.45
2023-03-03T04:37:52.402Z,187.10
2023-03-03T04:38:47.549Z,191.14
2023-03-03T04:39:42.878Z,195.46
2023-03-03T04:40:37.877Z,198.18
2023-03-03T04:41:33.183Z,200.11
2023-03-03T04:42:28.364Z,201.46
2023-03-03T04:43:23.542Z,199.26
2023-03-03T04:44:18.735Z,199.26
2023-03-03T04:45:13.917Z,200.85
2023-03-03T04:46:09.177Z,203.09
2023-03-03T04:47:04.352Z,203.21
2023-03-03T04:47:59.630Z,205.37
2023-03-03T04:48:54.668Z,206.15
2023-03-03T04:49:49.934Z,206.41
2023-03-03T04:50:45.234Z,205.76
2023-03-03T04:51:40.376Z,205.76
2023-03-03T04:52:35.664Z,207.06
2023-03-03T04:53:30.802Z,203.21
2023-03-03T04:54:25.966Z,200.11
2023-03-03T04:55:21.180Z,195.81
2023-03-03T04:56:16.375Z,194.31
2023-03-03T04:57:11.524Z,194.08
2023-03-03T04:59:32.969Z,173.29
2023-03-03T05:00:27.869Z,176.40
2023-03-03T05:01:23.268Z,180.80
2023-03-03T05:02:18.455Z,184.19
2023-03-03T05:03:13.617Z,185.20
2023-03-03T05:04:08.729Z,188.72
2023-03-03T05:05:03.947Z,191.81
2023-03-03T05:05:59.245Z,193.96
2023-03-03T05:06:54.410Z,187.96
2023-03-03T05:07:49.567Z,189.70
2023-03-03T05:08:44.873Z,188.18
2023-03-03T05:09:40.132Z,189.37
2023-03-03T05:10:35.337Z,190.91
2023-03-03T05:12:59.682Z,173.83
2023-03-03T05:13:54.716Z,179.43
2023-03-03T05:14:50.022Z,184.19
2023-03-03T05:15:45.264Z,185.42
2023-03-03T05:16:40.454Z,185.42
2023-03-03T05:17:35.623Z,185.83
2023-03-03T05:18:30.924Z,186.45
2023-03-03T05:19:25.963Z,186.47
2023-03-03T05:20:21.184Z,187.10
2023-03-03T05:21:16.404Z,187.32
2023-03-03T05:22:13.210Z,186.79
2023-03-03T05:23:07.410Z,185.62
2023-03-03T05:24:02.085Z,183.18
2023-03-03T05:24:57.223Z,180.60
2023-03-03T05:25:52.834Z,178.48
2023-03-03T05:26:47.690Z,178.29
2023-03-03T05:27:42.987Z,180.21
2023-03-03T05:28:38.171Z,182.98
2023-03-03T05:29:34.376Z,184.19
2023-03-03T05:30:28.705Z,185.62
2023-03-03T05:31:24.021Z,185.42
2023-03-03T05:32:19.147Z,182.18
2023-03-03T05:33:14.353Z,177.53
2023-03-03T05:34:09.412Z,170.63
2023-03-03T05:35:04.716Z,171.86
2023-03-03T05:36:00.037Z,170.46
2023-03-03T05:36:55.196Z,170.28
2023-03-03T05:37:50.357Z,169.93
2023-03-03T05:38:45.686Z,169.93
2023-03-03T05:39:40.709Z,170.28
2023-03-03T05:40:35.888Z,167.88
2023-03-03T05:41:31.171Z,170.11
2023-03-03T05:42:26.382Z,170.28
2023-03-03T05:43:21.668Z,169.59
2023-03-03T05:44:17.874Z,169.76
2023-03-03T05:45:12.073Z,168.90
2023-03-03T05:46:07.403Z,167.88
2023-03-03T05:47:02.723Z,164.57
2023-03-03T05:47:58.118Z,162.49
2023-03-03T05:48:53.235Z,133.29
2023-03-03T05:49:48.601Z,104.95
2023-03-03T05:50:43.864Z,97.82
2023-03-03T05:51:39.085Z,108.29
2023-03-03T05:52:34.325Z,115.32
2023-03-03T05:53:29.703Z,124.35
2023-03-03T05:54:24.795Z,130.88
2023-03-03T05:55:20.054Z,135.12
2023-03-03T05:56:15.283Z,144.11
2023-03-03T05:57:10.656Z,150.20
2023-03-03T05:58:05.708Z,153.66
2023-03-03T05:59:00.983Z,155.96
2023-03-03T05:59:56.248Z,161.70
2023-03-03T06:00:51.461Z,161.39
2023-03-03T06:01:46.746Z,161.70
2023-03-03T06:02:42.395Z,157.58
2023-03-03T06:03:37.440Z,152.96
2023-03-03T06:04:32.638Z,152.12
2023-03-03T06:05:27.925Z,152.54
2023-03-03T06:06:23.231Z,154.66
2023-03-03T06:07:18.506Z,153.10
2023-03-03T06:08:13.861Z,153.38
2023-03-03T06:09:09.134Z,157.43
2023-03-03T06:10:04.477Z,157.73
2023-03-03T06:10:59.878Z,151.98
2023-03-03T06:11:55.314Z,152.40
2023-03-03T06:12:50.614Z,150.74
2023-03-03T06:13:46.160Z,148.60
2023-03-03T06:14:41.428Z,153.38
2023-03-03T06:15:36.826Z,154.23
2023-03-03T06:16:32.268Z,156.40
2023-03-03T06:17:27.684Z,155.23
2023-03-03T06:18:23.087Z,154.37
2023-03-03T06:19:18.524Z,155.67
2023-03-03T06:20:14.589Z,156.40
2023-03-03T06:21:09.324Z,155.38
2023-03-03T06:22:04.696Z,156.40
2023-03-03T06:23:00.082Z,157.28
2023-03-03T06:23:55.654Z,157.43
2023-03-03T06:24:50.938Z,157.13
2023-03-03T06:25:46.323Z,156.99
2023-03-03T06:26:41.736Z,155.09
2023-03-03T06:27:37.685Z,157.58
2023-03-03T06:28:32.548Z,144.86
2023-03-03T06:29:27.841Z,140.11
2023-03-03T06:30:23.261Z,132.13
2023-03-03T06:31:18.665Z,124.53
2023-03-03T06:32:14.188Z,124.53
2023-03-03T06:33:09.382Z,127.19
2023-03-03T06:34:04.924Z,120.40
2023-03-03T06:35:00.266Z,117.27
2023-03-03T06:35:55.566Z,108.64
2023-03-03T06:36:50.843Z,105.08
2023-03-03T06:37:46.220Z,110.66
2023-03-03T06:38:41.578Z,117.19
2023-03-03T06:39:37.053Z,121.36
2023-03-03T06:40:32.469Z,123.61
2023-03-03T06:41:27.853Z,125.19
2023-03-03T06:42:23.267Z,129.26
2023-03-03T06:43:18.643Z,133.93
2023-03-03T06:44:14.142Z,136.67
2023-03-03T06:45:09.417Z,118.35
2023-03-03T06:46:04.884Z,114.77
2023-03-03T06:47:00.187Z,117.27
2023-03-03T06:47:55.670Z,113.91
2023-03-03T06:48:50.888Z,117.02
2023-03-03T06:49:46.253Z,119.54
2023-03-03T06:50:41.630Z,114.46
2023-03-03T06:51:36.967Z,117.02
2023-03-03T06:52:32.383Z,120.84
2023-03-03T06:54:51.684Z,108.08
2023-03-03T06:55:46.995Z,105.35
2023-03-03T06:56:44.659Z,101.94
2023-03-03T06:57:37.927Z,101.94
2023-03-03T06:58:33.332Z,105.28
2023-03-03T06:59:28.777Z,109.50
2023-03-03T07:00:24.353Z,113.60
2023-03-03T07:01:19.827Z,119.62
2023-03-03T07:02:15.235Z,124.44
2023-03-03T07:03:10.660Z,127.97
2023-03-03T07:04:06.144Z,131.92
2023-03-03T07:05:01.415Z,137.23
2023-03-03T07:05:56.940Z,141.18
2023-03-03T07:06:52.242Z,142.26
2023-03-03T07:07:47.895Z,146.38
2023-03-03T07:08:43.052Z,145.11
2023-03-03T07:09:38.430Z,145.11
2023-03-03T07:10:33.829Z,147.68
2023-03-03T07:11:29.199Z,148.60
2023-03-03T07:12:24.674Z,149.40
2023-03-03T07:13:20.206Z,148.07
2023-03-03T07:14:15.316Z,147.03
2023-03-03T07:15:10.704Z,149.13
2023-03-03T07:16:06.267Z,150.47
2023-03-03T07:17:01.644Z,152.40
2023-03-03T07:17:57.065Z,149.00
2023-03-03T07:18:52.325Z,151.71
2023-03-03T07:19:47.757Z,149.26
2023-03-03T07:20:43.297Z,150.07
2023-03-03T07:21:38.565Z,148.73
2023-03-03T07:22:33.976Z,148.46
2023-03-03T07:23:29.423Z,147.03
2023-03-03T07:24:24.798Z,147.03
2023-03-03T07:25:20.338Z,144.98
2023-03-03T07:26:15.603Z,147.42
2023-03-03T07:27:11.020Z,146.64
2023-03-03T07:28:06.546Z,144.23
2023-03-03T07:29:01.891Z,138.95
2023-03-03T07:29:57.270Z,140.11
2023-03-03T07:30:52.735Z,143.86
2023-03-03T07:31:48.396Z,144.86
2023-03-03T07:32:43.523Z,147.16
2023-03-03T07:33:38.972Z,145.62
2023-03-03T07:34:34.340Z,148.86
2023-03-03T07:35:29.709Z,146.25
2023-03-03T07:36:25.196Z,147.94
2023-03-03T07:37:20.912Z,145.62
2023-03-03T07:38:16.160Z,144.36
2023-03-03T07:39:11.444Z,145.74
2023-03-03T07:40:06.838Z,143.73
2023-03-03T07:41:02.235Z,143.98
2023-03-03T07:41:57.999Z,143.61
2023-03-03T07:42:53.011Z,144.98
2023-03-03T07:43:48.481Z,146.77
2023-03-03T07:44:44.081Z,147.16
2023-03-03T07:45:39.572Z,147.42
2023-03-03T07:46:35.014Z,150.61
2023-03-03T07:47:30.713Z,151.98
2023-03-03T07:48:26.031Z,151.43
2023-03-03T07:49:21.567Z,151.29
2023-03-03T07:50:17.188Z,148.46
2023-03-03T07:51:12.639Z,149.66
2023-03-03T07:52:08.110Z,149.80
2023-03-03T07:53:03.788Z,151.71
2023-03-03T07:53:59.091Z,153.94
2023-03-03T07:54:54.554Z,154.80
2023-03-03T07:55:50.245Z,156.69
2023-03-03T07:56:45.655Z,157.43
2023-03-03T07:57:40.959Z,153.52
2023-03-03T07:58:36.397Z,154.80
2023-03-03T07:59:34.809Z,153.38
2023-03-03T08:00:27.316Z,141.30
2023-03-03T08:01:22.738Z,142.02
2023-03-03T08:02:18.443Z,142.51
2023-03-03T08:03:13.653Z,143.61
2023-03-03T08:04:09.212Z,145.74
2023-03-03T08:05:05.398Z,144.36
2023-03-03T08:06:00.163Z,146.25
2023-03-03T08:06:55.553Z,146.12
2023-03-03T08:07:51.099Z,147.81
2023-03-03T08:08:46.417Z,147.68
2023-03-03T08:09:41.849Z,146.38
2023-03-03T08:10:37.355Z,149.00
2023-03-03T08:11:32.801Z,150.07
2023-03-03T08:12:28.239Z,149.26
2023-03-03T08:13:23.709Z,150.74
2023-03-03T08:14:19.347Z,151.02
2023-03-03T08:15:14.770Z,142.14
2023-03-03T08:16:10.279Z,132.55
2023-03-03T08:17:05.872Z,125.94
2023-03-03T08:18:01.286Z,123.70
2023-03-03T08:18:56.755Z,122.34
2023-03-03T08:19:52.441Z,126.13
2023-03-03T08:20:47.806Z,130.68
2023-03-03T08:21:43.103Z,135.34
2023-03-03T08:22:38.549Z,140.82
2023-03-03T08:23:33.966Z,144.61
2023-03-03T08:24:29.437Z,146.25
2023-03-03T08:25:24.905Z,147.29
2023-03-03T08:26:20.502Z,147.55
2023-03-03T08:27:15.964Z,151.57
2023-03-03T08:28:11.431Z,151.29
2023-03-03T08:29:07.707Z,152.40
2023-03-03T08:30:02.533Z,151.15
2023-03-03T08:31:12.476Z,146.90
2023-03-03T08:31:54.494Z,142.99
2023-03-03T08:32:48.977Z,137.46
2023-03-03T08:33:44.372Z,139.06
2023-03-03T08:34:39.803Z,140.47
2023-03-03T08:35:35.206Z,142.26
2023-03-03T08:36:30.545Z,144.36
2023-03-03T08:37:26.170Z,144.98
2023-03-03T08:38:21.521Z,141.30
2023-03-03T08:39:16.956Z,139.06
2023-03-03T08:40:12.420Z,139.76
2023-03-03T08:41:08.115Z,140.23
2023-03-03T08:42:03.431Z,142.63
2023-03-03T08:42:58.892Z,145.11
2023-03-03T08:43:54.470Z,145.24
2023-03-03T08:44:49.905Z,138.83
2023-03-03T08:45:45.672Z,140.47
2023-03-03T08:46:40.940Z,143.86
2023-03-03T08:47:36.283Z,149.66
2023-03-03T08:48:31.744Z,154.09
2023-03-03T08:49:27.314Z,156.54
2023-03-03T08:50:22.879Z,159.08
2023-03-03T08:51:18.277Z,163.28
2023-03-03T08:52:13.820Z,162.96
2023-03-03T08:53:09.106Z,159.54
2023-03-03T08:54:04.730Z,160.15
2023-03-03T08:55:00.179Z,160.92
2023-03-03T08:55:55.732Z,162.65
2023-03-03T08:56:51.203Z,164.25
2023-03-03T08:57:46.523Z,164.57
2023-03-03T08:58:49.807Z,165.88
2023-03-03T08:59:38.460Z,164.73
2023-03-03T09:00:32.806Z,159.84
2023-03-03T09:01:28.354Z,159.23
2023-03-03T09:02:23.679Z,157.43
2023-03-03T09:03:19.167Z,155.09
2023-03-03T09:04:14.559Z,152.12
2023-03-03T09:05:09.882Z,148.86
2023-03-03T09:06:05.336Z,149.13
2023-03-03T09:07:00.962Z,147.29
2023-03-03T09:07:56.398Z,145.62
2023-03-03T09:08:51.928Z,146.25
2023-03-03T09:09:47.772Z,146.77
2023-03-03T09:10:42.698Z,146.00
2023-03-03T09:11:38.248Z,145.49
2023-03-03T09:12:33.567Z,143.73
2023-03-03T09:13:29.007Z,144.11
2023-03-03T09:14:24.522Z,143.86
2023-03-03T09:15:19.952Z,143.24
2023-03-03T09:16:15.495Z,143.12
2023-03-03T09:17:10.856Z,140.82
2023-03-03T09:18:06.435Z,140.23
2023-03-03T09:19:01.899Z,138.95
2023-03-03T09:19:57.536Z,140.00
2023-03-03T09:20:52.830Z,139.76
2023-03-03T09:21:48.306Z,138.49
2023-03-03T09:22:43.754Z,138.83
2023-03-03T09:23:39.362Z,139.53
2023-03-03T09:24:34.889Z,136.45
2023-03-03T09:25:30.217Z,132.23
2023-03-03T09:26:25.855Z,136.11
2023-03-03T09:27:21.307Z,138.83
2023-03-03T09:28:16.737Z,140.35
2023-03-03T09:29:12.166Z,143.24
2023-03-03T09:30:07.653Z,142.14
2023-03-03T09:31:04.411Z,140.70
2023-03-03T09:31:58.707Z,135.78
2023-03-03T09:32:54.164Z,137.23
2023-03-03T09:33:49.638Z,139.29
2023-03-03T09:34:45.222Z,139.41
2023-03-03T09:35:40.557Z,138.95
2023-03-03T09:36:35.911Z,141.42
2023-03-03T09:37:31.501Z,143.36
2023-03-03T09:38:26.971Z,143.86
2023-03-03T09:39:22.434Z,142.75
2023-03-03T09:40:17.889Z,139.18
2023-03-03T09:41:13.449Z,136.90
2023-03-03T09:42:08.950Z,134.47
2023-03-03T09:43:04.408Z,132.55
2023-03-03T09:44:00.755Z,131.50
2023-03-03T09:44:55.238Z,130.99
2023-03-03T09:45:50.694Z,132.76
2023-03-03T09:46:46.299Z,133.50
2023-03-03T09:47:41.642Z,136.00
2023-03-03T09:48:37.100Z,135.56
2023-03-03T09:49:32.878Z,133.39
2023-03-03T09:50:28.198Z,133.07
2023-03-03T09:51:23.728Z,132.13
2023-03-03T09:52:19.062Z,132.44
2023-03-03T09:53:14.533Z,135.67
2023-03-03T09:54:10.128Z,138.60
2023-03-03T09:55:05.619Z,142.63
2023-03-03T09:56:01.079Z,143.49
2023-03-03T09:56:56.533Z,144.98
2023-03-03T09:58:08.202Z,144.73
2023-03-03T09:58:48.454Z,141.66
2023-03-03T09:59:42.820Z,140.94
2023-03-03T10:00:38.414Z,141.90
2023-03-03T10:01:33.882Z,146.38
2023-03-03T10:02:29.260Z,148.33
2023-03-03T10:03:24.918Z,150.61
2023-03-03T10:04:20.457Z,151.57
2023-03-03T10:05:15.760Z,151.98
2023-03-03T10:06:11.406Z,147.29
2023-03-03T10:07:06.738Z,146.38
2023-03-03T10:08:02.230Z,122.07
2023-03-03T10:08:57.681Z,126.23
2023-03-03T10:09:53.186Z,129.36
2023-03-03T10:10:48.546Z,130.47
2023-03-03T10:11:44.142Z,129.26
2023-03-03T10:12:39.565Z,130.99
2023-03-03T10:13:35.025Z,132.44
2023-03-03T10:14:30.659Z,130.99
2023-03-03T10:15:26.255Z,129.06
2023-03-03T10:16:21.661Z,129.56
2023-03-03T10:17:17.112Z,133.07
2023-03-03T10:18:12.534Z,137.91
2023-03-03T10:19:08.029Z,139.29
2023-03-03T10:20:03.574Z,140.82
2023-03-03T10:20:59.040Z,142.38
2023-03-03T10:21:54.499Z,144.86
2023-03-03T10:22:50.002Z,146.77
2023-03-03T10:23:45.421Z,146.64
2023-03-03T10:24:40.889Z,148.46
2023-03-03T10:25:36.436Z,150.47
2023-03-03T10:26:44.312Z,150.88
2023-03-03T10:27:28.402Z,151.02
2023-03-03T10:28:22.906Z,150.07
2023-03-03T10:29:22.943Z,149.00
2023-03-03T10:30:13.984Z,147.94
2023-03-03T10:31:14.248Z,145.24
2023-03-03T10:32:06.166Z,144.36
2023-03-03T10:33:00.553Z,144.73
2023-03-03T10:33:55.974Z,148.07
2023-03-03T10:34:51.622Z,149.26
2023-03-03T10:36:00.941Z,150.34
2023-03-03T10:36:43.377Z,151.71
2023-03-03T10:37:37.867Z,157.28
2023-03-03T10:38:33.486Z,159.38
2023-03-03T10:39:29.007Z,162.96
2023-03-03T10:40:24.622Z,161.70
2023-03-03T10:41:19.967Z,158.93
2023-03-03T10:42:15.399Z,158.03
2023-03-03T10:43:15.339Z,158.78
2023-03-03T10:44:07.338Z,157.73
2023-03-03T10:45:02.193Z,157.13
2023-03-03T10:45:57.916Z,156.25
2023-03-03T10:46:52.811Z,160.46
2023-03-03T10:47:48.248Z,163.28
2023-03-03T10:48:43.749Z,161.23
2023-03-03T10:49:39.237Z,155.23
2023-03-03T10:50:34.879Z,150.34
2023-03-03T10:51:30.225Z,150.61
2023-03-03T10:52:25.706Z,148.33
2023-03-03T10:53:21.374Z,149.40
2023-03-03T10:54:16.828Z,153.94
2023-03-03T10:55:12.573Z,159.84
2023-03-03T10:56:07.832Z,176.77
2023-03-03T10:57:03.335Z,183.58
2023-03-03T10:57:58.903Z,184.39
2023-03-03T10:58:54.416Z,179.24
2023-03-03T10:59:49.803Z,175.66
2023-03-03T11:00:45.361Z,180.60
2023-03-03T11:01:40.758Z,180.21
2023-03-03T11:02:36.207Z,172.04
2023-03-03T11:03:31.785Z,169.24
2023-03-03T11:04:27.263Z,170.11
2023-03-03T11:05:23.673Z,179.05
2023-03-03T11:06:18.391Z,184.19
2023-03-03T11:07:13.818Z,186.68
2023-03-03T11:08:09.341Z,191.25
2023-03-03T11:09:04.885Z,201.96
2023-03-03T11:10:00.897Z,204.10
2023-03-03T11:10:55.768Z,216.49
2023-03-03T11:11:51.340Z,235.60
2023-03-03T11:12:46.490Z,276.74
2023-03-03T11:13:42.033Z,290.20
2023-03-03T11:14:37.583Z,289.69
2023-03-03T11:15:33.044Z,281.49
2023-03-03T11:16:28.739Z,269.47
2023-03-03T11:17:24.251Z,262.36
2023-03-03T11:18:20.223Z,253.44
2023-03-03T11:19:15.107Z,248.45
2023-03-03T11:20:10.490Z,248.83
2023-03-03T11:21:06.242Z,245.11
2023-03-03T11:22:01.970Z,254.42
2023-03-03T11:22:57.621Z,258.23
2023-03-03T11:23:52.647Z,258.63
2023-03-03T11:24:48.181Z,236.97
2023-03-03T11:25:43.695Z,229.99
2023-03-03T11:26:39.225Z,229.35
2023-03-03T11:28:59.402Z,235.27
2023-03-03T11:29:54.638Z,222.81
2023-03-03T11:30:50.237Z,210.51
2023-03-03T11:31:45.638Z,205.24
2023-03-03T11:32:41.137Z,207.32
2023-03-03T11:33:36.751Z,217.06
2023-03-03T11:34:32.307Z,231.12
2023-03-03T11:35:27.870Z,239.21
2023-03-03T11:36:23.490Z,239.56
2023-03-03T11:37:19.031Z,239.91
2023-03-03T11:38:14.536Z,248.64
2023-03-03T11:39:10.174Z,256.61
2023-03-03T11:40:05.799Z,245.84
2023-03-03T11:41:01.233Z,251.69
2023-03-03T11:41:56.705Z,260.69